sensor_id;sensor_type;location;lat;lon;timestamp;temperature;humidity
20442;DHT22;10380;52.102;20.614;2022-07-01T00:02:22;25.50;99.90
20442;DHT22;10380;52.102;20.614;2022-07-01T00:04:49;25.40;99.90
20442;DHT22;10380;52.102;20.614;2022-07-01T00:07:17;25.40;99.90
20442;DHT22;10380;52.102;20.614;2022-07-01T00:09:45;25.40;99.90
20442;DHT22;10380;52.102;20.614;2022-07-01T00:12:13;25.40;99.90
20442;DHT22;10380;52.102;20.614;2022-07-01T00:14:40;25.40;99.90
20442;DHT22;10380;52.102;20.614;2022-07-01T00:17:08;25.30;99.90
20442;DHT22;10380;52.102;20.614;2022-07-01T00:19:36;25.30;99.90
20442;DHT22;10380;52.102;20.614;2022-07-01T00:22:04;25.20;99.90
20442;DHT22;10380;52.102;20.614;2022-07-01T00:24:31;25.20;99.90
20442;DHT22;10380;52.102;20.614;2022-07-01T00:26:58;25.20;99.90
20442;DHT22;10380;52.102;20.614;2022-07-01T00:29:25;25.10;99.90
20442;DHT22;10380;52.102;20.614;2022-07-01T00:31:52;25.00;99.90
20442;DHT22;10380;52.102;20.614;2022-07-01T00:34:19;25.00;99.90
20442;DHT22;10380;52.102;20.614;2022-07-01T00:36:46;25.00;99.90
20442;DHT22;10380;52.102;20.614;2022-07-01T00:39:13;24.80;99.90
20442;DHT22;10380;52.102;20.614;2022-07-01T00:41:41;24.70;99.90
20442;DHT22;10380;52.102;20.614;2022-07-01T00:44:18;24.50;99.90
20442;DHT22;10380;52.102;20.614;2022-07-01T00:46:49;24.20;99.90
20442;DHT22;10380;52.102;20.614;2022-07-01T00:49:17;24.00;99.90
20442;DHT22;10380;52.102;20.614;2022-07-01T00:51:44;23.90;99.90
20442;DHT22;10380;52.102;20.614;2022-07-01T00:54:12;23.80;99.90
20442;DHT22;10380;52.102;20.614;2022-07-01T00:56:39;23.70;99.90
20442;DHT22;10380;52.102;20.614;2022-07-01T00:59:06;23.50;99.90
20442;DHT22;10380;52.102;20.614;2022-07-01T01:01:33;23.50;99.90
20442;DHT22;10380;52.102;20.614;2022-07-01T01:04:01;23.40;99.90
20442;DHT22;10380;52.102;20.614;2022-07-01T01:06:28;23.40;99.90
20442;DHT22;10380;52.102;20.614;2022-07-01T01:08:57;23.40;99.90
20442;DHT22;10380;52.102;20.614;2022-07-01T01:11:24;23.30;99.90
20442;DHT22;10380;52.102;20.614;2022-07-01T01:13:51;23.30;99.90
20442;DHT22;10380;52.102;20.614;2022-07-01T01:16:20;23.40;99.90
20442;DHT22;10380;52.102;20.614;2022-07-01T01:18:48;23.40;99.90
20442;DHT22;10380;52.102;20.614;2022-07-01T01:21:15;23.30;99.90
20442;DHT22;10380;52.102;20.614;2022-07-01T01:23:42;23.20;99.90
20442;DHT22;10380;52.102;20.614;2022-07-01T01:26:20;23.10;99.90
20442;DHT22;10380;52.102;20.614;2022-07-01T01:28:50;23.10;99.90
20442;DHT22;10380;52.102;20.614;2022-07-01T01:31:26;23.10;99.90
20442;DHT22;10380;52.102;20.614;2022-07-01T01:33:57;23.00;99.90
20442;DHT22;10380;52.102;20.614;2022-07-01T01:36:27;22.90;99.90
20442;DHT22;10380;52.102;20.614;2022-07-01T01:38:54;22.90;99.90
20442;DHT22;10380;52.102;20.614;2022-07-01T01:41:27;22.90;99.90
20442;DHT22;10380;52.102;20.614;2022-07-01T01:43:54;22.90;99.90
20442;DHT22;10380;52.102;20.614;2022-07-01T01:46:21;22.90;99.90
20442;DHT22;10380;52.102;20.614;2022-07-01T01:48:49;22.90;99.90
20442;DHT22;10380;52.102;20.614;2022-07-01T01:51:16;22.90;99.90
20442;DHT22;10380;52.102;20.614;2022-07-01T01:53:45;22.90;99.90
20442;DHT22;10380;52.102;20.614;2022-07-01T01:56:14;22.90;99.90
20442;DHT22;10380;52.102;20.614;2022-07-01T01:58:42;22.90;99.90
20442;DHT22;10380;52.102;20.614;2022-07-01T02:01:10;22.80;99.90
20442;DHT22;10380;52.102;20.614;2022-07-01T02:03:39;22.70;99.90
20442;DHT22;10380;52.102;20.614;2022-07-01T02:06:08;22.70;99.90
20442;DHT22;10380;52.102;20.614;2022-07-01T02:08:38;22.70;99.90
20442;DHT22;10380;52.102;20.614;2022-07-01T02:11:06;22.70;99.90
20442;DHT22;10380;52.102;20.614;2022-07-01T02:13:34;22.70;99.90
20442;DHT22;10380;52.102;20.614;2022-07-01T02:16:02;22.70;99.90
20442;DHT22;10380;52.102;20.614;2022-07-01T02:18:29;22.70;99.90
20442;DHT22;10380;52.102;20.614;2022-07-01T02:20:58;22.70;99.90
20442;DHT22;10380;52.102;20.614;2022-07-01T02:23:25;22.70;99.90
20442;DHT22;10380;52.102;20.614;2022-07-01T02:25:52;22.60;99.90
20442;DHT22;10380;52.102;20.614;2022-07-01T02:28:19;22.70;99.90
20442;DHT22;10380;52.102;20.614;2022-07-01T02:30:47;22.60;99.90
20442;DHT22;10380;52.102;20.614;2022-07-01T02:33:14;22.60;99.90
20442;DHT22;10380;52.102;20.614;2022-07-01T02:35:44;22.50;99.90
20442;DHT22;10380;52.102;20.614;2022-07-01T02:38:16;22.50;99.90
20442;DHT22;10380;52.102;20.614;2022-07-01T02:40:43;22.50;99.90
20442;DHT22;10380;52.102;20.614;2022-07-01T02:43:10;22.50;99.90
20442;DHT22;10380;52.102;20.614;2022-07-01T02:45:39;22.50;99.90
20442;DHT22;10380;52.102;20.614;2022-07-01T02:48:08;22.50;99.90
20442;DHT22;10380;52.102;20.614;2022-07-01T02:50:35;22.50;99.90
20442;DHT22;10380;52.102;20.614;2022-07-01T02:53:02;22.60;99.90
20442;DHT22;10380;52.102;20.614;2022-07-01T02:55:30;22.50;99.90
20442;DHT22;10380;52.102;20.614;2022-07-01T02:57:57;22.50;99.90
20442;DHT22;10380;52.102;20.614;2022-07-01T03:00:25;22.60;99.90
20442;DHT22;10380;52.102;20.614;2022-07-01T03:02:52;22.60;99.90
20442;DHT22;10380;52.102;20.614;2022-07-01T03:05:19;22.60;99.90
20442;DHT22;10380;52.102;20.614;2022-07-01T03:07:47;22.70;99.90
20442;DHT22;10380;52.102;20.614;2022-07-01T03:10:14;22.60;99.90
20442;DHT22;10380;52.102;20.614;2022-07-01T03:12:41;22.70;99.90
20442;DHT22;10380;52.102;20.614;2022-07-01T03:15:12;22.70;99.90
20442;DHT22;10380;52.102;20.614;2022-07-01T03:17:41;22.80;99.90
20442;DHT22;10380;52.102;20.614;2022-07-01T03:20:15;22.80;99.90
20442;DHT22;10380;52.102;20.614;2022-07-01T03:22:43;22.80;99.90
20442;DHT22;10380;52.102;20.614;2022-07-01T03:25:14;22.90;99.90
20442;DHT22;10380;52.102;20.614;2022-07-01T03:27:41;22.90;99.90
20442;DHT22;10380;52.102;20.614;2022-07-01T03:30:13;23.00;99.90
20442;DHT22;10380;52.102;20.614;2022-07-01T03:32:42;23.00;99.90
20442;DHT22;10380;52.102;20.614;2022-07-01T03:35:09;23.00;99.90
20442;DHT22;10380;52.102;20.614;2022-07-01T03:38:03;23.00;99.90
20442;DHT22;10380;52.102;20.614;2022-07-01T03:40:31;23.10;99.90
20442;DHT22;10380;52.102;20.614;2022-07-01T03:42:58;23.20;99.90
20442;DHT22;10380;52.102;20.614;2022-07-01T03:45:25;23.20;99.90
20442;DHT22;10380;52.102;20.614;2022-07-01T03:47:52;23.30;99.90
20442;DHT22;10380;52.102;20.614;2022-07-01T03:50:24;23.30;99.90
20442;DHT22;10380;52.102;20.614;2022-07-01T03:52:52;23.40;99.90
20442;DHT22;10380;52.102;20.614;2022-07-01T03:55:48;23.40;99.90
20442;DHT22;10380;52.102;20.614;2022-07-01T03:58:15;23.50;99.90
20442;DHT22;10380;52.102;20.614;2022-07-01T04:00:42;23.50;99.90
20442;DHT22;10380;52.102;20.614;2022-07-01T04:03:09;23.60;99.90
20442;DHT22;10380;52.102;20.614;2022-07-01T04:05:37;23.70;99.90
20442;DHT22;10380;52.102;20.614;2022-07-01T04:08:06;23.70;99.90
20442;DHT22;10380;52.102;20.614;2022-07-01T04:10:34;23.80;99.90
20442;DHT22;10380;52.102;20.614;2022-07-01T04:13:02;23.90;99.90
20442;DHT22;10380;52.102;20.614;2022-07-01T04:15:50;23.90;99.90
20442;DHT22;10380;52.102;20.614;2022-07-01T04:18:17;24.00;99.90
20442;DHT22;10380;52.102;20.614;2022-07-01T04:20:45;24.10;99.90
20442;DHT22;10380;52.102;20.614;2022-07-01T04:23:32;24.20;99.90
20442;DHT22;10380;52.102;20.614;2022-07-01T04:26:00;24.30;99.90
20442;DHT22;10380;52.102;20.614;2022-07-01T04:28:47;24.30;99.90
20442;DHT22;10380;52.102;20.614;2022-07-01T04:31:14;24.40;99.90
20442;DHT22;10380;52.102;20.614;2022-07-01T04:33:41;24.60;99.90
20442;DHT22;10380;52.102;20.614;2022-07-01T04:36:09;24.70;99.90
20442;DHT22;10380;52.102;20.614;2022-07-01T04:38:35;24.80;99.90
20442;DHT22;10380;52.102;20.614;2022-07-01T04:41:02;25.00;99.90
20442;DHT22;10380;52.102;20.614;2022-07-01T04:43:48;25.10;99.90
20442;DHT22;10380;52.102;20.614;2022-07-01T04:46:16;25.20;99.90
20442;DHT22;10380;52.102;20.614;2022-07-01T04:48:43;25.30;99.90
20442;DHT22;10380;52.102;20.614;2022-07-01T04:51:10;25.40;99.90
20442;DHT22;10380;52.102;20.614;2022-07-01T04:53:37;25.40;99.90
20442;DHT22;10380;52.102;20.614;2022-07-01T04:56:04;25.40;99.90
20442;DHT22;10380;52.102;20.614;2022-07-01T04:58:31;25.50;99.90
20442;DHT22;10380;52.102;20.614;2022-07-01T05:00:59;25.50;99.90
20442;DHT22;10380;52.102;20.614;2022-07-01T05:03:26;25.60;99.90
20442;DHT22;10380;52.102;20.614;2022-07-01T05:05:53;25.60;99.90
20442;DHT22;10380;52.102;20.614;2022-07-01T05:08:20;25.70;99.90
20442;DHT22;10380;52.102;20.614;2022-07-01T05:10:47;25.70;99.90
20442;DHT22;10380;52.102;20.614;2022-07-01T05:13:14;25.80;99.90
20442;DHT22;10380;52.102;20.614;2022-07-01T05:15:41;25.90;99.90
20442;DHT22;10380;52.102;20.614;2022-07-01T05:18:08;25.90;99.90
20442;DHT22;10380;52.102;20.614;2022-07-01T05:20:54;26.00;99.90
20442;DHT22;10380;52.102;20.614;2022-07-01T05:23:39;26.10;99.90
20442;DHT22;10380;52.102;20.614;2022-07-01T05:26:06;26.10;99.90
20442;DHT22;10380;52.102;20.614;2022-07-01T05:28:33;26.20;99.90
20442;DHT22;10380;52.102;20.614;2022-07-01T05:31:00;26.20;99.90
20442;DHT22;10380;52.102;20.614;2022-07-01T05:33:27;26.30;99.90
20442;DHT22;10380;52.102;20.614;2022-07-01T05:35:54;26.40;99.90
20442;DHT22;10380;52.102;20.614;2022-07-01T05:38:21;26.40;99.90
20442;DHT22;10380;52.102;20.614;2022-07-01T05:40:48;26.50;99.90
20442;DHT22;10380;52.102;20.614;2022-07-01T05:43:15;26.50;99.90
20442;DHT22;10380;52.102;20.614;2022-07-01T05:45:42;26.60;99.90
20442;DHT22;10380;52.102;20.614;2022-07-01T05:48:10;26.60;99.90
20442;DHT22;10380;52.102;20.614;2022-07-01T05:50:37;26.70;99.90
20442;DHT22;10380;52.102;20.614;2022-07-01T05:53:06;26.80;99.90
20442;DHT22;10380;52.102;20.614;2022-07-01T05:55:33;26.90;99.90
20442;DHT22;10380;52.102;20.614;2022-07-01T05:58:01;26.90;99.90
20442;DHT22;10380;52.102;20.614;2022-07-01T06:00:29;27.00;99.90
20442;DHT22;10380;52.102;20.614;2022-07-01T06:02:55;27.10;99.90
20442;DHT22;10380;52.102;20.614;2022-07-01T06:05:27;27.20;99.90
20442;DHT22;10380;52.102;20.614;2022-07-01T06:07:56;27.30;99.90
20442;DHT22;10380;52.102;20.614;2022-07-01T06:10:23;27.30;99.90
20442;DHT22;10380;52.102;20.614;2022-07-01T06:12:50;27.40;99.90
20442;DHT22;10380;52.102;20.614;2022-07-01T06:15:17;27.50;99.90
20442;DHT22;10380;52.102;20.614;2022-07-01T06:17:45;27.60;99.90
20442;DHT22;10380;52.102;20.614;2022-07-01T06:20:12;27.60;99.90
20442;DHT22;10380;52.102;20.614;2022-07-01T06:22:38;27.60;99.90
20442;DHT22;10380;52.102;20.614;2022-07-01T06:25:06;27.70;99.90
20442;DHT22;10380;52.102;20.614;2022-07-01T06:27:40;27.70;99.90
20442;DHT22;10380;52.102;20.614;2022-07-01T06:30:09;27.80;99.90
20442;DHT22;10380;52.102;20.614;2022-07-01T06:32:37;27.90;99.90
20442;DHT22;10380;52.102;20.614;2022-07-01T06:35:04;28.00;99.90
20442;DHT22;10380;52.102;20.614;2022-07-01T06:37:31;28.10;99.90
20442;DHT22;10380;52.102;20.614;2022-07-01T06:40:04;28.20;99.90
20442;DHT22;10380;52.102;20.614;2022-07-01T06:42:33;28.30;99.90
20442;DHT22;10380;52.102;20.614;2022-07-01T06:45:00;28.40;99.90
20442;DHT22;10380;52.102;20.614;2022-07-01T06:47:27;28.40;99.90
20442;DHT22;10380;52.102;20.614;2022-07-01T06:49:55;28.50;99.90
20442;DHT22;10380;52.102;20.614;2022-07-01T06:52:27;28.50;99.90
20442;DHT22;10380;52.102;20.614;2022-07-01T06:54:54;28.60;99.90
20442;DHT22;10380;52.102;20.614;2022-07-01T06:57:21;28.60;99.90
20442;DHT22;10380;52.102;20.614;2022-07-01T06:59:48;28.70;99.90
20442;DHT22;10380;52.102;20.614;2022-07-01T07:02:15;28.80;99.90
20442;DHT22;10380;52.102;20.614;2022-07-01T07:04:43;28.90;99.90
20442;DHT22;10380;52.102;20.614;2022-07-01T07:07:28;28.90;99.90
20442;DHT22;10380;52.102;20.614;2022-07-01T07:09:55;29.00;99.90
20442;DHT22;10380;52.102;20.614;2022-07-01T07:12:24;29.10;99.90
20442;DHT22;10380;52.102;20.614;2022-07-01T07:14:51;29.20;99.90
20442;DHT22;10380;52.102;20.614;2022-07-01T07:17:18;29.20;99.90
20442;DHT22;10380;52.102;20.614;2022-07-01T07:19:45;29.30;99.90
20442;DHT22;10380;52.102;20.614;2022-07-01T07:22:12;29.40;99.90
20442;DHT22;10380;52.102;20.614;2022-07-01T07:24:40;29.40;99.90
20442;DHT22;10380;52.102;20.614;2022-07-01T07:27:08;29.50;99.90
20442;DHT22;10380;52.102;20.614;2022-07-01T07:29:35;29.60;99.90
20442;DHT22;10380;52.102;20.614;2022-07-01T07:32:02;29.70;99.90
20442;DHT22;10380;52.102;20.614;2022-07-01T07:34:29;29.80;99.90
20442;DHT22;10380;52.102;20.614;2022-07-01T07:36:56;29.90;99.90
20442;DHT22;10380;52.102;20.614;2022-07-01T07:39:23;30.00;99.90
20442;DHT22;10380;52.102;20.614;2022-07-01T07:41:58;30.10;99.90
20442;DHT22;10380;52.102;20.614;2022-07-01T07:44:25;30.20;99.90
20442;DHT22;10380;52.102;20.614;2022-07-01T07:46:52;30.20;99.90
20442;DHT22;10380;52.102;20.614;2022-07-01T07:49:19;30.30;99.90
20442;DHT22;10380;52.102;20.614;2022-07-01T07:51:46;30.40;99.90
20442;DHT22;10380;52.102;20.614;2022-07-01T07:54:13;30.50;99.90
20442;DHT22;10380;52.102;20.614;2022-07-01T07:56:40;30.50;99.90
20442;DHT22;10380;52.102;20.614;2022-07-01T07:59:11;30.60;99.90
20442;DHT22;10380;52.102;20.614;2022-07-01T08:01:38;30.70;99.90
20442;DHT22;10380;52.102;20.614;2022-07-01T08:04:05;30.70;99.90
20442;DHT22;10380;52.102;20.614;2022-07-01T08:06:33;30.90;99.90
20442;DHT22;10380;52.102;20.614;2022-07-01T08:09:00;30.90;99.90
20442;DHT22;10380;52.102;20.614;2022-07-01T08:11:27;31.00;99.90
20442;DHT22;10380;52.102;20.614;2022-07-01T08:13:54;31.10;99.90
20442;DHT22;10380;52.102;20.614;2022-07-01T08:16:21;31.20;99.90
20442;DHT22;10380;52.102;20.614;2022-07-01T08:18:48;31.30;99.90
20442;DHT22;10380;52.102;20.614;2022-07-01T08:21:15;31.30;99.90
20442;DHT22;10380;52.102;20.614;2022-07-01T08:23:43;31.40;99.90
20442;DHT22;10380;52.102;20.614;2022-07-01T08:26:10;31.50;99.90
20442;DHT22;10380;52.102;20.614;2022-07-01T08:28:41;31.50;99.90
20442;DHT22;10380;52.102;20.614;2022-07-01T08:31:07;31.60;99.90
20442;DHT22;10380;52.102;20.614;2022-07-01T08:33:35;31.60;99.90
20442;DHT22;10380;52.102;20.614;2022-07-01T08:36:06;31.60;99.90
20442;DHT22;10380;52.102;20.614;2022-07-01T08:38:34;31.60;99.90
20442;DHT22;10380;52.102;20.614;2022-07-01T08:41:02;31.70;99.90
20442;DHT22;10380;52.102;20.614;2022-07-01T08:43:30;31.80;99.90
20442;DHT22;10380;52.102;20.614;2022-07-01T08:45:59;31.80;99.90
20442;DHT22;10380;52.102;20.614;2022-07-01T08:48:29;31.90;99.90
20442;DHT22;10380;52.102;20.614;2022-07-01T08:50:56;31.90;99.90
20442;DHT22;10380;52.102;20.614;2022-07-01T08:53:24;32.00;99.90
20442;DHT22;10380;52.102;20.614;2022-07-01T08:55:51;32.10;99.90
20442;DHT22;10380;52.102;20.614;2022-07-01T08:58:36;32.20;99.90
20442;DHT22;10380;52.102;20.614;2022-07-01T09:01:20;32.20;99.90
20442;DHT22;10380;52.102;20.614;2022-07-01T09:03:53;32.30;99.90
20442;DHT22;10380;52.102;20.614;2022-07-01T09:06:26;32.40;99.90
20442;DHT22;10380;52.102;20.614;2022-07-01T09:08:53;32.40;99.90
20442;DHT22;10380;52.102;20.614;2022-07-01T09:11:22;32.50;99.90
20442;DHT22;10380;52.102;20.614;2022-07-01T09:14:07;32.60;99.90
20442;DHT22;10380;52.102;20.614;2022-07-01T09:16:52;32.70;99.90
20442;DHT22;10380;52.102;20.614;2022-07-01T09:19:21;32.70;99.90
20442;DHT22;10380;52.102;20.614;2022-07-01T09:21:50;32.80;99.90
20442;DHT22;10380;52.102;20.614;2022-07-01T09:26:57;32.90;99.90
20442;DHT22;10380;52.102;20.614;2022-07-01T09:29:29;33.00;99.90
20442;DHT22;10380;52.102;20.614;2022-07-01T09:31:59;33.00;99.90
20442;DHT22;10380;52.102;20.614;2022-07-01T09:34:27;33.00;99.90
20442;DHT22;10380;52.102;20.614;2022-07-01T09:36:57;33.10;99.90
20442;DHT22;10380;52.102;20.614;2022-07-01T09:39:25;33.20;99.90
20442;DHT22;10380;52.102;20.614;2022-07-01T09:42:07;33.20;99.90
20442;DHT22;10380;52.102;20.614;2022-07-01T09:44:34;33.30;99.90
20442;DHT22;10380;52.102;20.614;2022-07-01T09:47:01;33.40;99.90
20442;DHT22;10380;52.102;20.614;2022-07-01T09:49:32;33.40;99.90
20442;DHT22;10380;52.102;20.614;2022-07-01T09:51:59;33.40;99.90
20442;DHT22;10380;52.102;20.614;2022-07-01T09:54:26;33.50;99.90
20442;DHT22;10380;52.102;20.614;2022-07-01T09:56:53;33.50;99.90
20442;DHT22;10380;52.102;20.614;2022-07-01T09:59:20;33.60;99.90
20442;DHT22;10380;52.102;20.614;2022-07-01T10:01:47;33.70;99.90
20442;DHT22;10380;52.102;20.614;2022-07-01T10:04:16;33.80;99.90
20442;DHT22;10380;52.102;20.614;2022-07-01T10:15:03;33.90;99.90
20442;DHT22;10380;52.102;20.614;2022-07-01T10:17:36;33.90;99.90
20442;DHT22;10380;52.102;20.614;2022-07-01T10:20:27;34.00;99.90
20442;DHT22;10380;52.102;20.614;2022-07-01T10:23:04;34.00;99.90
20442;DHT22;10380;52.102;20.614;2022-07-01T10:31:04;34.10;99.90
20442;DHT22;10380;52.102;20.614;2022-07-01T10:41:41;34.40;99.90
20442;DHT22;10380;52.102;20.614;2022-07-01T10:44:13;34.40;99.90
20442;DHT22;10380;52.102;20.614;2022-07-01T10:46:48;34.40;99.90
20442;DHT22;10380;52.102;20.614;2022-07-01T10:49:19;34.50;99.90
20442;DHT22;10380;52.102;20.614;2022-07-01T10:59:43;34.60;99.90
20442;DHT22;10380;52.102;20.614;2022-07-01T11:02:12;34.60;99.90
20442;DHT22;10380;52.102;20.614;2022-07-01T11:04:40;34.60;99.90
20442;DHT22;10380;52.102;20.614;2022-07-01T11:07:09;34.70;99.90
20442;DHT22;10380;52.102;20.614;2022-07-01T11:09:36;34.70;99.90
20442;DHT22;10380;52.102;20.614;2022-07-01T11:12:04;34.70;99.90
20442;DHT22;10380;52.102;20.614;2022-07-01T11:14:36;34.70;99.90
20442;DHT22;10380;52.102;20.614;2022-07-01T11:17:05;34.80;99.90
20442;DHT22;10380;52.102;20.614;2022-07-01T11:19:32;34.80;99.90
20442;DHT22;10380;52.102;20.614;2022-07-01T11:22:00;34.90;99.90
20442;DHT22;10380;52.102;20.614;2022-07-01T11:24:27;34.90;99.90
20442;DHT22;10380;52.102;20.614;2022-07-01T11:27:05;35.00;99.90
20442;DHT22;10380;52.102;20.614;2022-07-01T11:29:33;35.10;99.90
20442;DHT22;10380;52.102;20.614;2022-07-01T11:32:01;35.10;99.90
20442;DHT22;10380;52.102;20.614;2022-07-01T11:34:29;35.20;99.80
20442;DHT22;10380;52.102;20.614;2022-07-01T11:36:57;35.30;99.60
20442;DHT22;10380;52.102;20.614;2022-07-01T11:39:47;35.40;99.30
20442;DHT22;10380;52.102;20.614;2022-07-01T11:42:14;35.60;98.90
20442;DHT22;10380;52.102;20.614;2022-07-01T11:44:43;35.70;98.60
20442;DHT22;10380;52.102;20.614;2022-07-01T11:47:23;35.80;98.80
20442;DHT22;10380;52.102;20.614;2022-07-01T11:49:51;36.10;98.50
20442;DHT22;10380;52.102;20.614;2022-07-01T11:52:21;36.40;97.90
20442;DHT22;10380;52.102;20.614;2022-07-01T11:54:54;36.90;97.10
20442;DHT22;10380;52.102;20.614;2022-07-01T11:57:41;37.50;96.70
20442;DHT22;10380;52.102;20.614;2022-07-01T12:00:11;38.30;95.70
20442;DHT22;10380;52.102;20.614;2022-07-01T12:02:39;39.20;94.30
20442;DHT22;10380;52.102;20.614;2022-07-01T12:05:07;40.10;93.10
20442;DHT22;10380;52.102;20.614;2022-07-01T12:07:34;40.80;91.90
20442;DHT22;10380;52.102;20.614;2022-07-01T12:10:01;41.50;90.70
20442;DHT22;10380;52.102;20.614;2022-07-01T12:12:31;42.00;88.00
20442;DHT22;10380;52.102;20.614;2022-07-01T12:14:59;42.70;85.60
20442;DHT22;10380;52.102;20.614;2022-07-01T12:17:27;43.40;82.90
20442;DHT22;10380;52.102;20.614;2022-07-01T12:19:54;44.00;80.80
20442;DHT22;10380;52.102;20.614;2022-07-01T12:22:23;44.70;78.80
20442;DHT22;10380;52.102;20.614;2022-07-01T12:25:13;45.20;75.70
20442;DHT22;10380;52.102;20.614;2022-07-01T12:27:41;45.80;72.60
20442;DHT22;10380;52.102;20.614;2022-07-01T12:30:11;46.20;71.60
20442;DHT22;10380;52.102;20.614;2022-07-01T12:32:49;46.60;69.10
20442;DHT22;10380;52.102;20.614;2022-07-01T12:35:23;47.10;67.00
20442;DHT22;10380;52.102;20.614;2022-07-01T12:38:04;47.50;64.50
20442;DHT22;10380;52.102;20.614;2022-07-01T12:40:34;47.70;63.10
20442;DHT22;10380;52.102;20.614;2022-07-01T12:43:01;47.90;62.40
20442;DHT22;10380;52.102;20.614;2022-07-01T12:45:39;48.10;61.30
20442;DHT22;10380;52.102;20.614;2022-07-01T12:48:06;48.10;59.50
20442;DHT22;10380;52.102;20.614;2022-07-01T12:50:34;48.10;59.30
20442;DHT22;10380;52.102;20.614;2022-07-01T12:53:11;48.20;59.00
20442;DHT22;10380;52.102;20.614;2022-07-01T12:58:08;48.60;57.60
20442;DHT22;10380;52.102;20.614;2022-07-01T13:00:38;48.60;56.70
20442;DHT22;10380;52.102;20.614;2022-07-01T13:03:06;48.50;56.40
20442;DHT22;10380;52.102;20.614;2022-07-01T13:05:35;48.50;56.00
20442;DHT22;10380;52.102;20.614;2022-07-01T13:08:04;48.60;55.90
20442;DHT22;10380;52.102;20.614;2022-07-01T13:10:31;48.90;55.60
20442;DHT22;10380;52.102;20.614;2022-07-01T13:12:58;49.10;55.20
20442;DHT22;10380;52.102;20.614;2022-07-01T13:15:25;49.50;54.70
20442;DHT22;10380;52.102;20.614;2022-07-01T13:17:52;49.60;54.30
20442;DHT22;10380;52.102;20.614;2022-07-01T13:20:20;49.80;54.00
20442;DHT22;10380;52.102;20.614;2022-07-01T13:22:47;49.80;53.80
20442;DHT22;10380;52.102;20.614;2022-07-01T13:25:15;49.90;53.30
20442;DHT22;10380;52.102;20.614;2022-07-01T13:27:42;49.90;52.80
20442;DHT22;10380;52.102;20.614;2022-07-01T13:30:11;49.80;52.70
20442;DHT22;10380;52.102;20.614;2022-07-01T13:32:39;50.20;53.00
20442;DHT22;10380;52.102;20.614;2022-07-01T13:35:08;50.60;52.50
20442;DHT22;10380;52.102;20.614;2022-07-01T13:37:36;50.90;51.90
20442;DHT22;10380;52.102;20.614;2022-07-01T13:40:04;50.90;51.20
20442;DHT22;10380;52.102;20.614;2022-07-01T13:42:31;50.90;51.00
20442;DHT22;10380;52.102;20.614;2022-07-01T13:44:58;51.00;51.10
20442;DHT22;10380;52.102;20.614;2022-07-01T13:47:25;50.80;50.70
20442;DHT22;10380;52.102;20.614;2022-07-01T13:49:52;50.90;50.50
20442;DHT22;10380;52.102;20.614;2022-07-01T13:52:20;51.10;50.40
20442;DHT22;10380;52.102;20.614;2022-07-01T13:54:47;51.10;49.90
20442;DHT22;10380;52.102;20.614;2022-07-01T13:57:14;51.20;49.60
20442;DHT22;10380;52.102;20.614;2022-07-01T13:59:41;51.20;49.70
20442;DHT22;10380;52.102;20.614;2022-07-01T14:02:09;51.30;49.50
20442;DHT22;10380;52.102;20.614;2022-07-01T14:04:36;51.30;49.30
20442;DHT22;10380;52.102;20.614;2022-07-01T14:07:03;51.30;49.30
20442;DHT22;10380;52.102;20.614;2022-07-01T14:09:31;51.50;49.50
20442;DHT22;10380;52.102;20.614;2022-07-01T14:11:58;51.70;49.00
20442;DHT22;10380;52.102;20.614;2022-07-01T14:14:29;51.50;48.50
20442;DHT22;10380;52.102;20.614;2022-07-01T14:16:56;51.10;48.50
20442;DHT22;10380;52.102;20.614;2022-07-01T14:19:24;50.70;48.70
20442;DHT22;10380;52.102;20.614;2022-07-01T14:21:51;50.70;48.70
20442;DHT22;10380;52.102;20.614;2022-07-01T14:24:19;50.60;48.70
20442;DHT22;10380;52.102;20.614;2022-07-01T14:26:46;50.60;48.70
20442;DHT22;10380;52.102;20.614;2022-07-01T14:29:13;50.60;48.50
20442;DHT22;10380;52.102;20.614;2022-07-01T14:31:40;50.40;48.30
20442;DHT22;10380;52.102;20.614;2022-07-01T14:34:08;50.10;48.40
20442;DHT22;10380;52.102;20.614;2022-07-01T14:36:35;49.90;48.40
20442;DHT22;10380;52.102;20.614;2022-07-01T14:39:02;49.70;48.60
20442;DHT22;10380;52.102;20.614;2022-07-01T14:41:29;49.50;48.70
20442;DHT22;10380;52.102;20.614;2022-07-01T14:43:56;49.30;48.60
20442;DHT22;10380;52.102;20.614;2022-07-01T14:46:23;49.20;49.00
20442;DHT22;10380;52.102;20.614;2022-07-01T14:48:50;49.10;49.10
20442;DHT22;10380;52.102;20.614;2022-07-01T14:51:17;48.90;49.40
20442;DHT22;10380;52.102;20.614;2022-07-01T14:53:44;48.50;49.30
20442;DHT22;10380;52.102;20.614;2022-07-01T14:56:15;48.10;49.70
20442;DHT22;10380;52.102;20.614;2022-07-01T14:58:42;47.60;50.20
20442;DHT22;10380;52.102;20.614;2022-07-01T15:01:10;47.30;50.40
20442;DHT22;10380;52.102;20.614;2022-07-01T15:03:37;47.00;50.50
20442;DHT22;10380;52.102;20.614;2022-07-01T15:06:04;46.80;50.90
20442;DHT22;10380;52.102;20.614;2022-07-01T15:08:31;46.80;51.10
20442;DHT22;10380;52.102;20.614;2022-07-01T15:10:58;46.70;51.30
20442;DHT22;10380;52.102;20.614;2022-07-01T15:13:32;46.60;52.00
20442;DHT22;10380;52.102;20.614;2022-07-01T15:15:59;46.70;51.20
20442;DHT22;10380;52.102;20.614;2022-07-01T15:18:27;46.60;51.10
20442;DHT22;10380;52.102;20.614;2022-07-01T15:20:54;46.70;50.70
20442;DHT22;10380;52.102;20.614;2022-07-01T15:23:20;46.60;50.90
20442;DHT22;10380;52.102;20.614;2022-07-01T15:25:48;46.50;51.00
20442;DHT22;10380;52.102;20.614;2022-07-01T15:28:16;46.50;50.80
20442;DHT22;10380;52.102;20.614;2022-07-01T15:30:43;46.40;50.60
20442;DHT22;10380;52.102;20.614;2022-07-01T15:33:13;46.20;51.50
20442;DHT22;10380;52.102;20.614;2022-07-01T15:35:40;46.20;50.90
20442;DHT22;10380;52.102;20.614;2022-07-01T15:38:07;46.10;50.90
20442;DHT22;10380;52.102;20.614;2022-07-01T15:40:34;46.00;51.80
20442;DHT22;10380;52.102;20.614;2022-07-01T15:43:01;46.00;51.10
20442;DHT22;10380;52.102;20.614;2022-07-01T15:45:28;46.10;51.30
20442;DHT22;10380;52.102;20.614;2022-07-01T15:47:55;46.10;51.30
20442;DHT22;10380;52.102;20.614;2022-07-01T15:50:41;46.10;51.30
20442;DHT22;10380;52.102;20.614;2022-07-01T15:53:09;46.10;51.50
20442;DHT22;10380;52.102;20.614;2022-07-01T15:55:37;46.10;51.60
20442;DHT22;10380;52.102;20.614;2022-07-01T15:58:12;46.10;51.50
20442;DHT22;10380;52.102;20.614;2022-07-01T16:00:47;46.10;51.50
20442;DHT22;10380;52.102;20.614;2022-07-01T16:03:15;46.10;51.10